Time;durP1;ratioP1;P1;durP2;ratioP2;P2;SDS_P1;SDS_P2;PMS_P1;PMS_P2;Temp;Humidity;BMP_temperature;BMP_pressure;BME280_temperature;BME280_humidity;BME280_pressure;Samples;Min_cycle;Max_cycle;Signal;HPM_P1;HPM_P2
2023/05/11 04:05:35;;;;;;;1.90;1.20;;;12.20;99.90;;;;;;5343191;23;20488;-67
2023/05/11 04:08:01;;;;;;;1.23;0.77;;;12.20;99.90;;;;;;4974314;28;20516;-65
2023/05/11 04:10:27;;;;;;;0.40;0.40;;;12.20;99.90;;;;;;4974115;28;20636;-66
2023/05/11 04:12:53;;;;;;;0.50;0.50;;;12.20;99.90;;;;;;4974873;28;20433;-67
2023/05/11 04:15:19;;;;;;;0.60;0.60;;;12.20;99.90;;;;;;4973524;28;20242;-67
2023/05/11 04:17:44;;;;;;;0.83;0.70;;;12.20;99.90;;;;;;4957080;28;20459;-67
2023/05/11 04:20:10;;;;;;;0.40;0.40;;;12.30;99.90;;;;;;4973942;28;20169;-67
2023/05/11 04:22:36;;;;;;;0.70;0.70;;;12.30;99.90;;;;;;4974015;28;20729;-67
2023/05/11 04:25:02;;;;;;;0.50;0.50;;;12.30;99.90;;;;;;4974728;28;20195;-66
2023/05/11 04:27:27;;;;;;;0.57;0.57;;;12.30;99.90;;;;;;4974251;28;20198;-66
2023/05/11 04:29:53;;;;;;;0.57;0.57;;;12.30;99.90;;;;;;4956946;28;20411;-66
2023/05/11 04:32:18;;;;;;;0.63;0.63;;;12.30;99.90;;;;;;4974187;28;20191;-66
2023/05/11 04:34:44;;;;;;;0.50;0.50;;;12.40;99.90;;;;;;4984238;28;20202;-67
2023/05/11 04:37:10;;;;;;;0.63;0.53;;;12.30;99.90;;;;;;4991804;28;20181;-68
2023/05/11 04:39:36;;;;;;;2.20;0.63;;;12.40;99.90;;;;;;4991648;28;20453;-68
2023/05/11 04:42:01;;;;;;;0.67;0.67;;;12.40;99.90;;;;;;4974211;28;20223;-68
2023/05/11 04:44:27;;;;;;;0.53;0.53;;;12.40;99.90;;;;;;4980322;28;20203;-67
2023/05/11 04:46:54;;;;;;;1.30;1.10;;;12.40;99.90;;;;;;4972339;28;20171;-67
2023/05/11 04:49:19;;;;;;;1.73;0.60;;;12.40;99.90;;;;;;4972566;28;20195;-67
2023/05/11 04:51:45;;;;;;;0.73;0.63;;;12.40;99.90;;;;;;4958320;28;20489;-65
2023/05/11 04:54:10;;;;;;;0.87;0.87;;;12.40;99.90;;;;;;4985336;28;20193;-67
2023/05/11 04:56:39;;;;;;;0.53;0.53;;;12.40;99.90;;;;;;4965281;28;20237;-66
2023/05/11 04:59:09;;;;;;;0.73;0.70;;;12.40;99.90;;;;;;4958168;29;20565;-65
2023/05/11 05:01:34;;;;;;;0.60;0.60;;;12.40;99.90;;;;;;4958260;29;20458;-65
2023/05/11 05:04:00;;;;;;;0.63;0.63;;;12.50;99.90;;;;;;4969865;28;20403;-67
2023/05/11 05:06:26;;;;;;;0.70;0.70;;;12.50;99.90;;;;;;4996854;28;20198;-65
2023/05/11 05:08:51;;;;;;;0.70;0.70;;;12.50;99.90;;;;;;4996719;28;20232;-66
2023/05/11 05:11:17;;;;;;;0.40;0.40;;;12.50;99.90;;;;;;4996856;28;20171;-66
2023/05/11 05:13:43;;;;;;;0.40;0.40;;;12.60;99.90;;;;;;4975326;28;20641;-65
2023/05/11 05:16:09;;;;;;;0.53;0.53;;;12.50;99.90;;;;;;4959594;28;20207;-67
2023/05/11 05:18:34;;;;;;;3.17;1.73;;;12.60;99.90;;;;;;4977173;28;20582;-67
2023/05/11 05:21:00;;;;;;;0.80;0.80;;;12.60;99.90;;;;;;4977236;28;20561;-66
2023/05/11 05:23:29;;;;;;;0.60;0.60;;;12.60;99.90;;;;;;4977368;28;20522;-66
2023/05/11 05:25:54;;;;;;;1.23;1.13;;;12.60;99.90;;;;;;4962588;28;20281;-66
2023/05/11 05:28:20;;;;;;;0.67;0.67;;;12.60;99.90;;;;;;4984015;28;20460;-67
2023/05/11 05:30:45;;;;;;;1.30;0.63;;;12.70;99.90;;;;;;4996576;28;20602;-69
2023/05/11 05:33:11;;;;;;;1.07;1.00;;;12.70;99.90;;;;;;4996098;28;20222;-68
2023/05/11 05:35:37;;;;;;;1.17;1.17;;;12.80;99.90;;;;;;4996184;28;20198;-63
2023/05/11 05:38:02;;;;;;;0.70;0.70;;;12.80;99.90;;;;;;4992045;28;20199;-65
2023/05/11 05:40:28;;;;;;;0.50;0.50;;;12.90;99.90;;;;;;4976706;28;20707;-64
2023/05/11 05:42:53;;;;;;;0.70;0.70;;;12.90;99.90;;;;;;4976923;28;20163;-64
2023/05/11 05:45:19;;;;;;;0.67;0.53;;;12.90;99.90;;;;;;4976461;28;20195;-65
2023/05/11 05:47:45;;;;;;;0.60;0.60;;;13.00;99.90;;;;;;4977752;28;20375;-65
2023/05/11 05:50:10;;;;;;;0.60;0.60;;;13.00;99.90;;;;;;4996299;28;20182;-64
2023/05/11 05:52:36;;;;;;;0.80;0.80;;;13.10;99.90;;;;;;4978965;28;20178;-65
2023/05/11 05:55:02;;;;;;;1.10;1.00;;;13.10;99.90;;;;;;4995558;28;20214;-64
2023/05/11 05:57:29;;;;;;;0.67;0.67;;;13.20;99.90;;;;;;4995869;28;20628;-64
2023/05/11 05:59:55;;;;;;;1.07;1.07;;;13.20;99.90;;;;;;4977053;28;20175;-65
2023/05/11 06:02:21;;;;;;;0.97;0.70;;;13.30;99.90;;;;;;4976359;28;20413;-64
2023/05/11 06:04:46;;;;;;;0.77;0.77;;;13.30;99.90;;;;;;4975916;28;20394;-65
2023/05/11 06:07:13;;;;;;;0.80;0.80;;;13.40;99.90;;;;;;4976168;28;20187;-65
2023/05/11 06:09:38;;;;;;;1.40;1.30;;;13.50;99.90;;;;;;4982594;28;20190;-65
2023/05/11 06:12:05;;;;;;;0.73;0.73;;;13.50;99.90;;;;;;4993975;28;20750;-66
2023/05/11 06:14:31;;;;;;;0.67;0.67;;;13.50;99.90;;;;;;4979156;28;20250;-65
2023/05/11 06:16:56;;;;;;;0.50;0.50;;;13.50;99.90;;;;;;4976068;28;20405;-65
2023/05/11 06:19:22;;;;;;;5.10;0.97;;;13.50;99.90;;;;;;4983438;28;20553;-65
2023/05/11 06:21:48;;;;;;;1.70;0.60;;;13.60;99.90;;;;;;4995302;28;20187;-65
2023/05/11 06:24:13;;;;;;;0.90;0.90;;;13.60;99.90;;;;;;4994822;28;20594;-65
2023/05/11 06:26:39;;;;;;;0.70;0.70;;;13.60;99.90;;;;;;4994905;28;20179;-65
2023/05/11 06:29:06;;;;;;;0.50;0.50;;;13.60;99.90;;;;;;4991201;28;20202;-65
2023/05/11 06:31:32;;;;;;;1.07;1.07;;;13.60;99.90;;;;;;4976188;28;20399;-65
2023/05/11 06:33:57;;;;;;;0.70;0.70;;;13.60;99.90;;;;;;4975564;28;20447;-65
2023/05/11 06:36:23;;;;;;;0.93;0.90;;;13.60;99.90;;;;;;4975867;28;20183;-65
2023/05/11 06:38:49;;;;;;;1.10;1.00;;;13.60;99.90;;;;;;4976011;28;20266;-65
2023/05/11 06:41:15;;;;;;;0.87;0.87;;;13.60;99.90;;;;;;4962816;28;20410;-65
2023/05/11 06:43:41;;;;;;;0.60;0.60;;;13.60;99.90;;;;;;4977163;28;20172;-65
2023/05/11 06:46:06;;;;;;;0.80;0.80;;;13.60;99.90;;;;;;4994965;28;20191;-65
2023/05/11 06:48:32;;;;;;;1.00;1.00;;;13.50;99.90;;;;;;4977522;28;20179;-65
2023/05/11 06:50:58;;;;;;;1.73;1.70;;;13.50;99.90;;;;;;4995003;28;20507;-65
2023/05/11 06:53:23;;;;;;;0.93;0.93;;;13.60;99.90;;;;;;4994529;28;20218;-65
2023/05/11 06:55:49;;;;;;;1.90;1.07;;;13.60;99.90;;;;;;4986755;28;20207;-65
2023/05/11 06:58:15;;;;;;;0.80;0.80;;;13.60;99.90;;;;;;4975323;28;20290;-65
2023/05/11 07:00:41;;;;;;;1.00;1.00;;;13.60;99.90;;;;;;4975310;28;20172;-64
2023/05/11 07:03:07;;;;;;;0.70;0.70;;;13.60;99.90;;;;;;4975016;28;20512;-66
2023/05/11 07:05:34;;;;;;;0.73;0.70;;;13.60;99.90;;;;;;4975044;28;20291;-65
2023/05/11 07:08:00;;;;;;;0.63;0.63;;;13.70;99.90;;;;;;4974951;28;20407;-65
2023/05/11 07:10:25;;;;;;;1.07;1.07;;;13.70;99.90;;;;;;4981689;28;20412;-65
2023/05/11 07:12:51;;;;;;;0.93;0.93;;;13.70;99.90;;;;;;4994289;28;20175;-65
2023/05/11 07:15:17;;;;;;;0.93;0.93;;;13.70;99.90;;;;;;4993589;28;20210;-65
2023/05/11 07:17:46;;;;;;;3.90;1.00;;;13.70;99.90;;;;;;4994544;28;20203;-65
2023/05/11 07:20:12;;;;;;;1.00;1.00;;;13.70;99.90;;;;;;4994462;28;20235;-65
2023/05/11 07:22:37;;;;;;;0.90;0.90;;;13.70;99.90;;;;;;4994470;28;20418;-65
2023/05/11 07:25:03;;;;;;;1.37;0.97;;;13.70;99.90;;;;;;4958442;28;20204;-65
2023/05/11 07:27:30;;;;;;;0.97;0.97;;;13.70;99.90;;;;;;4957497;28;20256;-64
2023/05/11 07:29:56;;;;;;;1.07;1.07;;;13.80;99.90;;;;;;4974897;28;20183;-63
2023/05/11 07:32:21;;;;;;;0.80;0.80;;;13.80;99.90;;;;;;4974844;28;20889;-65
2023/05/11 07:34:47;;;;;;;0.87;0.83;;;13.90;99.90;;;;;;4974528;28;20276;-64
2023/05/11 07:37:13;;;;;;;1.10;1.10;;;13.90;99.90;;;;;;4976335;28;20223;-65
2023/05/11 07:39:38;;;;;;;0.70;0.70;;;14.00;99.90;;;;;;4976636;28;20203;-65
2023/05/11 07:42:04;;;;;;;1.27;1.27;;;14.00;99.90;;;;;;4976711;28;20183;-65
2023/05/11 07:44:30;;;;;;;1.10;1.00;;;14.00;99.90;;;;;;4975752;28;20203;-65
2023/05/11 07:46:56;;;;;;;0.73;0.73;;;14.10;99.90;;;;;;4994264;28;20494;-66
2023/05/11 07:49:21;;;;;;;1.47;1.37;;;14.10;99.90;;;;;;4976742;28;20228;-64
2023/05/11 07:51:47;;;;;;;0.77;0.77;;;14.10;99.90;;;;;;4993951;28;20415;-64
2023/05/11 07:54:13;;;;;;;0.83;0.83;;;14.10;99.90;;;;;;4985289;28;20239;-64
2023/05/11 07:56:38;;;;;;;0.80;0.80;;;14.10;99.90;;;;;;4974558;28;20180;-67
2023/05/11 07:59:04;;;;;;;1.00;1.00;;;14.10;99.90;;;;;;4974404;28;20196;-65
2023/05/11 08:01:30;;;;;;;1.03;1.03;;;14.10;99.90;;;;;;4974576;28;20172;-66
2023/05/11 08:03:55;;;;;;;3.87;2.63;;;14.10;99.90;;;;;;4957261;28;20187;-65
2023/05/11 08:06:21;;;;;;;1.60;1.50;;;14.00;99.90;;;;;;4974418;28;20424;-65
2023/05/11 08:08:47;;;;;;;1.00;1.00;;;14.10;99.90;;;;;;4981107;28;20216;-64
2023/05/11 08:11:12;;;;;;;1.40;1.30;;;14.20;99.90;;;;;;4993990;28;20171;-64
2023/05/11 08:13:38;;;;;;;0.97;0.97;;;14.20;99.90;;;;;;4983234;28;20176;-64
2023/05/11 08:16:04;;;;;;;1.80;1.40;;;14.30;99.90;;;;;;4974508;28;20199;-64
2023/05/11 08:18:30;;;;;;;1.40;1.30;;;14.40;99.90;;;;;;4974319;28;20204;-65
2023/05/11 08:20:55;;;;;;;1.80;1.70;;;14.40;99.90;;;;;;4974728;28;20423;-64
2023/05/11 08:23:21;;;;;;;1.50;1.40;;;14.50;99.90;;;;;;4979194;28;20262;-65
2023/05/11 08:25:52;;;;;;;3.20;2.93;;;14.40;99.90;;;;;;4993675;28;20611;-65
2023/05/11 08:28:21;;;;;;;2.73;2.20;;;14.40;99.90;;;;;;4997588;28;20187;-65
2023/05/11 08:30:56;;;;;;;1.77;1.67;;;14.50;99.90;;;;;;4997617;28;20493;-64
2023/05/11 08:33:22;;;;;;;1.10;1.10;;;14.50;99.90;;;;;;4996750;28;20758;-64
2023/05/11 08:35:48;;;;;;;1.30;1.20;;;14.60;99.90;;;;;;4979949;28;20528;-65
2023/05/11 08:38:13;;;;;;;1.33;1.33;;;14.60;99.90;;;;;;4997486;28;20454;-64
2023/05/11 08:40:46;;;;;;;1.33;1.30;;;14.70;99.90;;;;;;4982711;28;20536;-65
2023/05/11 08:43:13;;;;;;;1.63;1.50;;;14.70;99.90;;;;;;4977412;28;20397;-65
2023/05/11 08:45:40;;;;;;;1.20;1.20;;;14.80;99.90;;;;;;4977752;28;20417;-64
2023/05/11 08:48:06;;;;;;;1.63;1.47;;;14.80;99.90;;;;;;4977809;28;20503;-65
2023/05/11 08:50:32;;;;;;;1.60;1.50;;;14.60;99.90;;;;;;4977879;28;20424;-64
2023/05/11 08:52:58;;;;;;;1.43;1.33;;;14.60;99.90;;;;;;4977915;28;20539;-65
2023/05/11 08:55:26;;;;;;;1.40;1.30;;;14.70;99.90;;;;;;4991262;28;20417;-65
2023/05/11 08:57:52;;;;;;;1.57;1.40;;;14.70;99.90;;;;;;4997132;28;20199;-64
2023/05/11 09:00:19;;;;;;;1.50;1.40;;;14.70;99.90;;;;;;4996895;28;20874;-65
2023/05/11 09:02:46;;;;;;;1.30;1.17;;;14.80;99.90;;;;;;4996883;28;20377;-64
2023/05/11 09:05:12;;;;;;;4.13;1.70;;;14.80;99.90;;;;;;4996620;28;20419;-64
2023/05/11 09:07:41;;;;;;;1.23;1.23;;;14.90;99.90;;;;;;4996956;28;20493;-65
2023/05/11 09:10:07;;;;;;;1.93;1.30;;;14.90;99.90;;;;;;4982438;28;20412;-65
2023/05/11 09:12:34;;;;;;;0.90;0.90;;;14.80;99.90;;;;;;4959850;28;20424;-65
2023/05/11 09:14:59;;;;;;;1.27;1.17;;;14.90;99.90;;;;;;4976910;28;20424;-65
2023/05/11 09:17:27;;;;;;;1.80;1.70;;;15.00;99.90;;;;;;4977455;28;20742;-65
2023/05/11 09:20:00;;;;;;;1.43;1.33;;;15.10;99.90;;;;;;4977375;28;20250;-65
2023/05/11 09:22:26;;;;;;;1.70;1.60;;;15.10;99.90;;;;;;4977437;28;20403;-64
2023/05/11 09:24:52;;;;;;;1.50;1.40;;;15.20;99.90;;;;;;4990596;28;20430;-65
2023/05/11 09:27:18;;;;;;;1.97;1.13;;;15.10;99.90;;;;;;4979105;28;20183;-65
2023/05/11 09:29:44;;;;;;;1.33;1.23;;;15.10;99.90;;;;;;4996574;28;20905;-65
2023/05/11 09:32:10;;;;;;;1.37;1.37;;;15.10;99.90;;;;;;4996526;28;20187;-65
2023/05/11 09:34:36;;;;;;;1.33;1.23;;;15.20;99.90;;;;;;4978179;28;20557;-65
2023/05/11 09:37:01;;;;;;;2.63;1.77;;;15.30;99.90;;;;;;4976840;28;20911;-65
2023/05/11 09:39:34;;;;;;;1.93;1.83;;;15.20;99.90;;;;;;4974999;28;20212;-64
2023/05/11 09:42:17;;;;;;;2.10;1.90;;;15.20;99.90;;;;;;4956054;28;20530;-64
2023/05/11 09:44:44;;;;;;;1.40;1.40;;;15.20;99.90;;;;;;4976291;28;20437;-65
2023/05/11 09:47:11;;;;;;;2.20;2.10;;;15.30;99.90;;;;;;4976579;28;20419;-65
2023/05/11 09:49:41;;;;;;;1.53;1.43;;;15.30;99.90;;;;;;4957407;29;20408;-65
2023/05/11 09:52:16;;;;;;;2.13;2.03;;;15.30;99.90;;;;;;4964543;28;20400;-65
2023/05/11 09:54:47;;;;;;;1.80;1.70;;;15.20;99.90;;;;;;4970724;28;20468;-65
2023/05/11 09:57:30;;;;;;;1.40;1.30;;;15.30;99.90;;;;;;4976629;28;20415;-64
2023/05/11 09:59:58;;;;;;;1.73;1.20;;;15.30;99.90;;;;;;4975997;28;20871;-64
2023/05/11 10:02:28;;;;;;;0.80;0.80;;;15.40;99.90;;;;;;4960714;28;20406;-64
2023/05/11 10:04:56;;;;;;;0.93;0.93;;;15.40;99.90;;;;;;4975017;28;20450;-64
2023/05/11 10:07:30;;;;;;;1.70;0.93;;;15.40;99.90;;;;;;4959212;28;20423;-65
2023/05/11 10:09:58;;;;;;;1.20;1.17;;;15.50;99.90;;;;;;4972677;28;20547;-65
2023/05/11 10:12:26;;;;;;;1.33;1.00;;;15.50;99.90;;;;;;4976335;28;20421;-64
2023/05/11 10:14:55;;;;;;;1.73;1.27;;;15.60;99.90;;;;;;4975315;28;20529;-65
2023/05/11 10:17:21;;;;;;;1.03;1.00;;;15.70;99.90;;;;;;4978075;28;20421;-64
2023/05/11 10:19:48;;;;;;;1.53;1.43;;;15.70;99.90;;;;;;4985512;28;20936;-65
2023/05/11 10:22:16;;;;;;;1.10;1.10;;;15.70;99.90;;;;;;4995547;28;20768;-65
2023/05/11 10:24:42;;;;;;;1.00;1.00;;;15.60;99.90;;;;;;4967121;28;21028;-66
2023/05/11 10:27:12;;;;;;;1.43;1.40;;;15.70;99.90;;;;;;4958791;28;20392;-65
2023/05/11 10:29:38;;;;;;;1.00;1.00;;;15.60;99.90;;;;;;4975894;28;20418;-64
2023/05/11 10:32:06;;;;;;;2.03;1.17;;;15.50;99.90;;;;;;4975439;28;20515;-65
2023/05/11 10:34:32;;;;;;;1.30;1.20;;;15.40;99.90;;;;;;4975059;28;20453;-65
2023/05/11 10:36:59;;;;;;;2.00;1.90;;;15.40;99.90;;;;;;4975764;28;20459;-65
2023/05/11 10:39:30;;;;;;;1.67;1.57;;;15.30;99.90;;;;;;4984920;28;20439;-65
2023/05/11 10:42:20;;;;;;;1.67;1.30;;;15.40;99.90;;;;;;4995221;28;20428;-66
2023/05/11 10:44:57;;;;;;;1.30;1.30;;;15.30;99.90;;;;;;4974658;28;20453;-66
2023/05/11 10:47:45;;;;;;;1.50;1.40;;;15.30;99.90;;;;;;4975585;28;20405;-64
2023/05/11 10:50:32;;;;;;;1.07;1.00;;;15.30;99.90;;;;;;4974061;28;20512;-66
2023/05/11 10:53:12;;;;;;;1.30;1.20;;;15.40;99.90;;;;;;4957987;28;20495;-66
2023/05/11 10:56:18;;;;;;;1.47;1.40;;;15.30;99.90;;;;;;4994834;28;20426;-64
2023/05/11 10:58:53;;;;;;;1.47;1.37;;;15.30;99.90;;;;;;4977369;28;20439;-65
2023/05/11 11:01:40;;;;;;;0.80;0.80;;;15.40;99.90;;;;;;4975105;28;20422;-65
2023/05/11 11:04:08;;;;;;;1.00;1.00;;;15.40;99.90;;;;;;4974751;28;20416;-66
2023/05/11 11:06:37;;;;;;;0.97;0.97;;;15.40;99.90;;;;;;4974937;28;20438;-65
2023/05/11 11:09:14;;;;;;;1.40;1.30;;;15.50;99.90;;;;;;4976741;28;20426;-64
2023/05/11 11:11:46;;;;;;;1.67;1.57;;;15.50;99.90;;;;;;4957476;28;21007;-65
2023/05/11 11:14:16;;;;;;;1.17;1.13;;;15.70;99.90;;;;;;4973598;28;20452;-66
2023/05/11 11:17:19;;;;;;;1.30;1.20;;;15.70;99.90;;;;;;4974363;28;20429;-66
2023/05/11 11:19:45;;;;;;;1.63;1.37;;;15.70;99.90;;;;;;4974527;28;20438;-65
2023/05/11 11:22:40;;;;;;;1.30;1.20;;;15.80;99.90;;;;;;4974937;28;20441;-65
2023/05/11 11:25:07;;;;;;;0.90;0.90;;;15.80;99.90;;;;;;4973711;28;20303;-65
2023/05/11 11:27:39;;;;;;;1.03;1.03;;;15.90;99.90;;;;;;4957334;28;20518;-67
2023/05/11 11:30:29;;;;;;;1.00;1.00;;;16.00;99.90;;;;;;4955699;29;20541;-64
2023/05/11 11:33:14;;;;;;;1.37;1.23;;;16.10;99.90;;;;;;4959462;28;20908;-67
2023/05/11 11:35:40;;;;;;;0.83;0.83;;;16.20;99.90;;;;;;4974650;28;20487;-65
2023/05/11 11:38:17;;;;;;;1.37;1.37;;;16.20;99.90;;;;;;4978915;28;20564;-65
2023/05/11 11:40:53;;;;;;;1.53;1.43;;;16.00;99.90;;;;;;4974484;28;20194;-64
2023/05/11 11:43:18;;;;;;;1.27;1.17;;;15.90;99.90;;;;;;4974205;28;20386;-65
2023/05/11 11:45:57;;;;;;;1.37;1.27;;;15.80;99.90;;;;;;4974517;28;20779;-66
2023/05/11 11:48:36;;;;;;;2.67;1.40;;;15.80;99.90;;;;;;4974009;28;20634;-65
2023/05/11 11:51:07;;;;;;;1.10;1.00;;;15.80;99.90;;;;;;4978826;28;20466;-65
2023/05/11 11:53:36;;;;;;;1.13;1.10;;;15.90;99.90;;;;;;4974356;28;20903;-66
2023/05/11 11:56:06;;;;;;;0.87;0.87;;;16.00;99.90;;;;;;4974562;28;20577;-65
2023/05/11 11:58:41;;;;;;;0.90;0.90;;;16.00;99.90;;;;;;4974069;28;20433;-66
2023/05/11 12:01:12;;;;;;;0.73;0.73;;;16.10;99.90;;;;;;4978451;28;20409;-65
2023/05/11 12:03:40;;;;;;;2.57;2.37;;;16.20;99.90;;;;;;4963322;28;20494;-65
2023/05/11 12:06:08;;;;;;;1.17;1.10;;;16.30;99.90;;;;;;4997336;28;20853;-65
2023/05/11 12:08:35;;;;;;;0.50;0.50;;;16.40;99.90;;;;;;4985105;28;20431;-67
2023/05/11 12:11:02;;;;;;;1.03;0.93;;;16.40;99.90;;;;;;4981208;28;20423;-65
2023/05/11 12:13:28;;;;;;;0.90;0.90;;;16.30;99.90;;;;;;4980631;28;20410;-66
2023/05/11 12:16:13;;;;;;;0.90;0.90;;;16.20;99.90;;;;;;4980643;28;21007;-65
2023/05/11 12:18:40;;;;;;;1.10;0.97;;;16.30;99.90;;;;;;4980919;28;20469;-67
2023/05/11 12:21:06;;;;;;;0.77;0.77;;;16.40;99.90;;;;;;4980840;28;20374;-65
2023/05/11 12:23:32;;;;;;;1.10;1.10;;;16.60;99.90;;;;;;4980528;28;20986;-66
2023/05/11 12:26:01;;;;;;;0.80;0.80;;;16.60;99.90;;;;;;4980785;28;20430;-66
2023/05/11 12:28:27;;;;;;;0.50;0.50;;;16.70;99.90;;;;;;4980336;28;20183;-66
2023/05/11 12:30:56;;;;;;;1.03;0.87;;;16.60;99.90;;;;;;4980700;28;20407;-66
2023/05/11 12:33:22;;;;;;;0.70;0.70;;;16.60;99.90;;;;;;4989706;28;20216;-66
2023/05/11 12:35:52;;;;;;;0.80;0.80;;;16.70;99.90;;;;;;4982289;28;20751;-66
2023/05/11 12:38:18;;;;;;;0.80;0.80;;;16.50;99.90;;;;;;4983343;28;20794;-66
2023/05/11 12:40:47;;;;;;;0.60;0.60;;;16.40;99.90;;;;;;4962569;28;20446;-65
2023/05/11 12:43:17;;;;;;;0.70;0.70;;;16.50;99.90;;;;;;4980015;28;20204;-65
2023/05/11 12:45:43;;;;;;;0.67;0.67;;;16.60;99.90;;;;;;4979326;28;20861;-66
2023/05/11 12:48:10;;;;;;;0.60;0.60;;;16.70;99.90;;;;;;4985769;28;20438;-67
2023/05/11 12:50:44;;;;;;;0.60;0.60;;;16.90;99.90;;;;;;4978496;28;20415;-67
2023/05/11 12:53:14;;;;;;;0.80;0.80;;;17.00;99.90;;;;;;4977931;28;20437;-66
2023/05/11 12:55:41;;;;;;;1.63;1.30;;;17.00;99.90;;;;;;4962503;28;20412;-65
2023/05/11 12:58:12;;;;;;;0.90;0.90;;;17.00;99.90;;;;;;4980265;28;20446;-66
2023/05/11 13:00:53;;;;;;;0.97;0.90;;;17.10;99.90;;;;;;4962328;28;20415;-65
2023/05/11 13:03:26;;;;;;;0.63;0.63;;;17.10;99.90;;;;;;4978390;28;20420;-66
2023/05/11 13:06:06;;;;;;;0.70;0.70;;;17.00;99.90;;;;;;4979826;28;20788;-65
2023/05/11 13:08:32;;;;;;;0.77;0.77;;;17.00;99.90;;;;;;4979682;28;20406;-65
2023/05/11 13:11:17;;;;;;;0.57;0.57;;;16.90;99.90;;;;;;4980118;28;20943;-65
2023/05/11 13:13:43;;;;;;;0.97;0.63;;;16.90;99.90;;;;;;4975756;28;20423;-64
2023/05/11 13:16:10;;;;;;;0.80;0.80;;;16.80;99.90;;;;;;4976990;28;20427;-65
2023/05/11 13:18:35;;;;;;;0.60;0.60;;;16.80;99.90;;;;;;4983579;28;20470;-66
2023/05/11 13:21:06;;;;;;;0.50;0.50;;;16.90;99.90;;;;;;4976995;28;20930;-66
2023/05/11 13:23:31;;;;;;;0.80;0.80;;;16.80;99.90;;;;;;4976713;28;20218;-66
2023/05/11 13:25:57;;;;;;;0.93;0.83;;;16.80;99.90;;;;;;4959334;28;20492;-66
2023/05/11 13:28:24;;;;;;;0.80;0.80;;;16.90;99.90;;;;;;4976611;28;20250;-66
2023/05/11 13:30:50;;;;;;;1.53;1.10;;;16.90;99.90;;;;;;4977132;28;20191;-67
2023/05/11 13:33:17;;;;;;;0.70;0.70;;;16.90;99.90;;;;;;4989544;28;20449;-67
2023/05/11 13:35:44;;;;;;;1.07;1.07;;;16.90;99.90;;;;;;4945636;28;21022;-66
2023/05/11 13:38:10;;;;;;;0.80;0.80;;;17.00;99.90;;;;;;4935947;29;20464;-66
2023/05/11 13:40:37;;;;;;;1.13;1.13;;;17.10;99.90;;;;;;4936352;29;20977;-66
2023/05/11 13:43:02;;;;;;;0.73;0.70;;;17.10;99.90;;;;;;4935933;29;20911;-67
2023/05/11 13:45:28;;;;;;;0.77;0.77;;;17.20;99.90;;;;;;4935564;29;20494;-66
2023/05/11 13:47:54;;;;;;;0.87;0.87;;;17.10;99.90;;;;;;4941348;29;20228;-66
2023/05/11 13:50:23;;;;;;;0.70;0.70;;;17.10;99.90;;;;;;4952041;29;20487;-65
2023/05/11 13:52:50;;;;;;;2.10;1.13;;;17.10;99.90;;;;;;4955230;29;20238;-65
2023/05/11 13:55:16;;;;;;;0.80;0.80;;;17.10;99.90;;;;;;4942952;28;20914;-65
2023/05/11 13:57:41;;;;;;;0.87;0.87;;;17.00;99.90;;;;;;4935415;29;20521;-66
2023/05/11 14:00:08;;;;;;;0.93;0.90;;;17.10;99.90;;;;;;4937199;29;20177;-65
2023/05/11 14:02:33;;;;;;;0.63;0.63;;;17.10;99.90;;;;;;4919848;29;20184;-65
2023/05/11 14:04:59;;;;;;;0.83;0.67;;;17.20;99.90;;;;;;4935518;29;21046;-66
2023/05/11 14:07:25;;;;;;;0.80;0.80;;;17.20;99.90;;;;;;4967982;28;20255;-66
2023/05/11 14:09:50;;;;;;;0.80;0.80;;;17.40;99.90;;;;;;4975955;28;20173;-65
2023/05/11 14:12:17;;;;;;;1.47;0.87;;;17.50;99.90;;;;;;4975057;28;20581;-65
2023/05/11 14:14:42;;;;;;;0.90;0.90;;;17.50;99.90;;;;;;4975889;28;20539;-65
2023/05/11 14:17:09;;;;;;;1.00;1.00;;;17.40;99.90;;;;;;4975879;28;20431;-65
2023/05/11 14:19:35;;;;;;;0.70;0.70;;;17.50;99.90;;;;;;4976125;28;20200;-66
2023/05/11 14:22:01;;;;;;;0.63;0.63;;;17.50;99.90;;;;;;4975425;28;20539;-66
2023/05/11 14:24:27;;;;;;;1.10;1.00;;;17.50;99.90;;;;;;4981820;28;20539;-66
2023/05/11 14:26:53;;;;;;;0.80;0.80;;;17.50;99.90;;;;;;4995438;28;20405;-66
2023/05/11 14:29:19;;;;;;;0.60;0.60;;;17.30;99.90;;;;;;4995514;28;20412;-65
2023/05/11 14:31:45;;;;;;;1.27;0.70;;;17.20;99.90;;;;;;4995303;28;20389;-66
2023/05/11 14:34:11;;;;;;;0.80;0.80;;;17.10;99.90;;;;;;4971643;28;20192;-64
2023/05/11 14:36:37;;;;;;;1.57;1.20;;;17.10;99.90;;;;;;4976041;28;20466;-64
2023/05/11 14:39:03;;;;;;;1.33;0.80;;;17.10;99.90;;;;;;4957779;28;20212;-66
2023/05/11 14:41:29;;;;;;;0.80;0.80;;;17.20;99.90;;;;;;4981679;28;20176;-64
2023/05/11 14:43:55;;;;;;;0.80;0.80;;;17.20;99.90;;;;;;4975058;28;20445;-66
2023/05/11 14:46:21;;;;;;;1.20;0.97;;;17.10;99.90;;;;;;4975604;28;20179;-65
2023/05/11 14:48:46;;;;;;;1.10;1.10;;;17.10;99.90;;;;;;4957187;28;20235;-67
2023/05/11 14:51:12;;;;;;;1.10;1.00;;;17.20;99.90;;;;;;4975500;28;20420;-65
2023/05/11 14:53:39;;;;;;;0.80;0.80;;;17.20;99.90;;;;;;4975284;28;20179;-66
2023/05/11 14:56:04;;;;;;;1.20;1.20;;;17.30;99.90;;;;;;4975376;28;20622;-66
2023/05/11 14:58:30;;;;;;;1.70;1.00;;;17.30;99.90;;;;;;4975013;28;20490;-67
2023/05/11 15:00:56;;;;;;;0.90;0.90;;;17.20;99.90;;;;;;4975338;28;20386;-69
2023/05/11 15:03:23;;;;;;;0.67;0.67;;;17.30;99.90;;;;;;4975076;28;20172;-65
2023/05/11 15:05:49;;;;;;;0.77;0.77;;;17.40;99.90;;;;;;4975134;28;20268;-66
2023/05/11 15:08:15;;;;;;;1.47;0.70;;;17.50;99.90;;;;;;4981229;28;20434;-66
2023/05/11 15:10:41;;;;;;;0.80;0.80;;;17.60;99.90;;;;;;4994532;28;20410;-67
2023/05/11 15:13:08;;;;;;;0.67;0.67;;;17.60;99.90;;;;;;4994366;28;20543;-68
2023/05/11 15:15:34;;;;;;;0.60;0.60;;;17.50;99.90;;;;;;4994408;28;20188;-67
2023/05/11 15:18:00;;;;;;;1.17;0.80;;;17.50;99.90;;;;;;4976952;28;20466;-68
2023/05/11 15:20:25;;;;;;;0.60;0.60;;;17.40;99.90;;;;;;4994398;28;20491;-66
2023/05/11 15:22:51;;;;;;;0.60;0.60;;;17.10;99.90;;;;;;4984787;28;20546;-66
2023/05/11 15:25:17;;;;;;;0.73;0.73;;;17.10;99.90;;;;;;4974410;28;20195;-67
2023/05/11 15:27:43;;;;;;;0.60;0.60;;;17.10;99.90;;;;;;4974719;28;20168;-66
2023/05/11 15:30:09;;;;;;;0.83;0.83;;;16.90;99.90;;;;;;4974910;28;20469;-67
2023/05/11 15:32:35;;;;;;;0.70;0.70;;;16.90;99.90;;;;;;4974929;28;20253;-66
2023/05/11 15:35:00;;;;;;;0.80;0.80;;;16.80;99.90;;;;;;4986217;28;20503;-66
2023/05/11 15:37:27;;;;;;;1.03;1.03;;;16.70;99.90;;;;;;4994087;28;20171;-66
2023/05/11 15:39:52;;;;;;;0.93;0.87;;;16.60;99.90;;;;;;4994086;28;20194;-66
2023/05/11 15:42:18;;;;;;;1.27;1.20;;;16.40;99.90;;;;;;4994051;28;20746;-64
2023/05/11 15:44:43;;;;;;;0.67;0.67;;;16.50;99.90;;;;;;4993639;28;20214;-64
2023/05/11 15:47:09;;;;;;;0.60;0.60;;;16.40;99.90;;;;;;4994143;28;20254;-65
2023/05/11 15:49:34;;;;;;;1.60;1.50;;;16.40;99.90;;;;;;4982806;28;20186;-64
2023/05/11 15:52:00;;;;;;;1.13;1.13;;;16.40;99.90;;;;;;4974838;28;20198;-64
2023/05/11 15:54:26;;;;;;;0.60;0.60;;;16.30;99.90;;;;;;4974223;28;20195;-65
2023/05/11 15:56:52;;;;;;;1.60;1.20;;;16.20;99.90;;;;;;4976147;28;20252;-65
2023/05/11 15:59:18;;;;;;;1.03;1.03;;;16.10;99.90;;;;;;4974216;28;20479;-65
2023/05/11 16:01:44;;;;;;;1.57;0.70;;;16.20;99.90;;;;;;4983026;28;20526;-64
2023/05/11 16:04:10;;;;;;;0.97;0.97;;;16.20;99.90;;;;;;4983932;28;20415;-64
2023/05/11 16:06:35;;;;;;;0.77;0.77;;;16.20;99.90;;;;;;4993667;28;20181;-64
2023/05/11 16:09:01;;;;;;;0.90;0.90;;;16.20;99.90;;;;;;4993778;28;20413;-64
2023/05/11 16:11:27;;;;;;;0.90;0.90;;;16.20;99.90;;;;;;4987742;28;20640;-66
2023/05/11 16:13:52;;;;;;;1.17;1.00;;;16.10;99.90;;;;;;4974806;28;20178;-66
2023/05/11 16:16:18;;;;;;;0.80;0.80;;;16.00;99.90;;;;;;4975309;28;20183;-65
2023/05/11 16:18:46;;;;;;;1.00;1.00;;;15.90;99.90;;;;;;4976771;28;20568;-66
2023/05/11 16:21:13;;;;;;;1.00;1.00;;;15.80;99.90;;;;;;4993439;28;20212;-66
2023/05/11 16:23:39;;;;;;;1.20;0.90;;;15.70;99.90;;;;;;4955505;28;20411;-68
2023/05/11 16:26:05;;;;;;;1.03;1.00;;;15.60;99.90;;;;;;4973657;28;20448;-67
2023/05/11 16:28:32;;;;;;;0.90;0.90;;;15.60;99.90;;;;;;4974083;28;20432;-66
2023/05/11 16:30:57;;;;;;;0.80;0.80;;;15.60;99.90;;;;;;4975301;28;20592;-66
2023/05/11 16:33:25;;;;;;;0.80;0.73;;;15.50;99.90;;;;;;4974184;28;20446;-69
2023/05/11 16:35:51;;;;;;;0.70;0.70;;;15.50;99.90;;;;;;4974090;28;20197;-67
2023/05/11 16:38:21;;;;;;;1.03;0.80;;;15.60;99.90;;;;;;4965419;28;20470;-68
2023/05/11 16:40:48;;;;;;;1.00;1.00;;;15.50;99.90;;;;;;4976199;28;20735;-66
2023/05/11 16:43:15;;;;;;;0.77;0.77;;;15.50;99.90;;;;;;4975801;28;20506;-66
2023/05/11 16:45:41;;;;;;;0.87;0.87;;;15.50;99.90;;;;;;4986505;28;20439;-65
2023/05/11 16:48:07;;;;;;;0.80;0.80;;;15.40;99.90;;;;;;4976070;28;20795;-67
2023/05/11 16:50:33;;;;;;;0.70;0.70;;;15.40;99.90;;;;;;4944191;28;20422;-65
2023/05/11 16:53:00;;;;;;;1.00;1.00;;;15.40;99.90;;;;;;4960114;28;20254;-64
2023/05/11 16:55:27;;;;;;;0.60;0.60;;;15.40;99.90;;;;;;4977259;28;20193;-65